Time;durP1;ratioP1;P1;durP2;ratioP2;P2;SDS_P1;SDS_P2;PMS_P1;PMS_P2;Temp;Humidity;BMP_temperature;BMP_pressure;BME280_temperature;BME280_humidity;BME280_pressure;Samples;Min_cycle;Max_cycle;Signal;HPM_P1;HPM_P2
2022/07/25 00:01:56;;;;;;;;;;;22.10;99.90;;;;;;5028069;28;19926;-71
2022/07/25 00:04:23;;;;;;;;;;;22.10;99.90;;;;;;5027583;28;19949;-70
2022/07/25 00:06:50;;;;;;;;;;;22.00;99.90;;;;;;5027529;28;19930;-70
2022/07/25 00:09:18;;;;;;;;;;;21.90;99.90;;;;;;5027396;28;19961;-70
2022/07/25 00:11:45;;;;;;;;;;;21.90;99.90;;;;;;5027927;28;19953;-70
2022/07/25 00:14:11;;;;;;;;;;;21.80;99.90;;;;;;5027550;28;19944;-70
2022/07/25 00:16:38;;;;;;;;;;;21.80;99.90;;;;;;5027375;28;19976;-70
2022/07/25 00:19:05;;;;;;;;;;;21.80;99.90;;;;;;5027409;28;19937;-70
2022/07/25 00:21:32;;;;;;;;;;;21.80;99.90;;;;;;5025751;28;19925;-70
2022/07/25 00:23:59;;;;;;;;;;;21.80;99.90;;;;;;5028561;28;19932;-70
2022/07/25 00:26:27;;;;;;;;;;;21.70;99.90;;;;;;5028420;28;20383;-70
2022/07/25 00:28:54;;;;;;;;;;;21.70;99.90;;;;;;5028271;28;19965;-70
2022/07/25 00:31:21;;;;;;;;;;;21.70;99.90;;;;;;5011890;28;19925;-70
2022/07/25 00:33:47;;;;;;;;;;;21.70;99.90;;;;;;5028344;28;20401;-70
2022/07/25 00:36:14;;;;;;;;;;;21.70;99.90;;;;;;5028187;28;19930;-70
2022/07/25 00:38:41;;;;;;;;;;;21.70;99.90;;;;;;5027003;28;19926;-70
2022/07/25 00:41:08;;;;;;;;;;;21.70;99.90;;;;;;5024774;28;19929;-70
2022/07/25 00:43:36;;;;;;;;;;;21.70;99.90;;;;;;5028151;28;19930;-70
2022/07/25 00:46:03;;;;;;;;;;;21.60;99.90;;;;;;5023460;28;19925;-70
2022/07/25 00:48:30;;;;;;;;;;;21.60;99.90;;;;;;5028020;28;19980;-70
2022/07/25 00:50:57;;;;;;;;;;;21.50;99.90;;;;;;5027962;28;20324;-70
2022/07/25 00:53:24;;;;;;;;;;;21.50;99.90;;;;;;5044530;28;19925;-70
2022/07/25 00:55:51;;;;;;;;;;;21.40;99.90;;;;;;5027933;28;19926;-70
2022/07/25 00:58:18;;;;;;;;;;;21.30;99.90;;;;;;5024345;28;19953;-70
2022/07/25 01:00:46;;;;;;;;;;;21.20;99.90;;;;;;5027542;28;19933;-70
2022/07/25 01:03:13;;;;;;;;;;;21.20;99.90;;;;;;5027867;28;20373;-70
2022/07/25 01:05:40;;;;;;;;;;;21.30;99.90;;;;;;5044302;28;19948;-70
2022/07/25 01:08:07;;;;;;;;;;;21.20;99.90;;;;;;5027732;28;19979;-70
2022/07/25 01:10:34;;;;;;;;;;;21.20;99.90;;;;;;5027788;28;19926;-70
2022/07/25 01:13:01;;;;;;;;;;;21.20;99.90;;;;;;5027759;28;20389;-70
2022/07/25 01:15:28;;;;;;;;;;;21.30;99.90;;;;;;5044141;28;19933;-71
2022/07/25 01:17:56;;;;;;;;;;;21.30;99.90;;;;;;5027298;28;19976;-71
2022/07/25 01:20:26;;;;;;;;;;;21.40;99.90;;;;;;5020852;28;19926;-71
2022/07/25 01:22:53;;;;;;;;;;;21.30;99.90;;;;;;5011199;28;20410;-71
2022/07/25 01:25:20;;;;;;;;;;;21.20;99.90;;;;;;5027424;28;19976;-71
2022/07/25 01:27:47;;;;;;;;;;;21.20;99.90;;;;;;5043665;28;19933;-71
2022/07/25 01:30:15;;;;;;;;;;;21.20;99.90;;;;;;5026832;28;20439;-71
2022/07/25 01:32:42;;;;;;;;;;;21.30;99.90;;;;;;5043624;28;19926;-71
2022/07/25 01:35:10;;;;;;;;;;;21.30;99.90;;;;;;5027000;28;19933;-71
2022/07/25 01:37:38;;;;;;;;;;;21.30;99.90;;;;;;5027401;28;19936;-71
2022/07/25 01:40:06;;;;;;;;;;;21.20;99.90;;;;;;5023998;28;19932;-71
2022/07/25 01:42:32;;;;;;;;;;;21.30;99.90;;;;;;5042790;28;20397;-71
2022/07/25 01:44:59;;;;;;;;;;;21.20;99.90;;;;;;5027361;28;20273;-71
2022/07/25 01:47:26;;;;;;;;;;;21.20;99.90;;;;;;5027391;28;19925;-71
2022/07/25 01:49:53;;;;;;;;;;;21.10;99.90;;;;;;5026775;28;19925;-71
2022/07/25 01:52:20;;;;;;;;;;;21.00;99.90;;;;;;5027157;28;19951;-71
2022/07/25 01:54:48;;;;;;;;;;;20.90;99.90;;;;;;5014844;28;20419;-71
2022/07/25 01:57:15;;;;;;;;;;;20.90;99.90;;;;;;5028287;28;20389;-71
2022/07/25 01:59:41;;;;;;;;;;;21.00;99.90;;;;;;5029489;28;20381;-71
2022/07/25 02:02:09;;;;;;;;;;;21.00;99.90;;;;;;5024890;28;19929;-71
2022/07/25 02:04:36;;;;;;;;;;;21.00;99.90;;;;;;5029183;28;19925;-71
2022/07/25 02:07:03;;;;;;;;;;;20.90;99.90;;;;;;5030964;28;20475;-71
2022/07/25 02:09:30;;;;;;;;;;;20.90;99.90;;;;;;5030445;28;19929;-71
2022/07/25 02:11:58;;;;;;;;;;;20.80;99.90;;;;;;5014334;28;19937;-71
2022/07/25 02:14:25;;;;;;;;;;;20.80;99.90;;;;;;5030985;28;19926;-71
2022/07/25 02:16:52;;;;;;;;;;;20.80;99.90;;;;;;5047665;28;19929;-71
2022/07/25 02:19:19;;;;;;;;;;;20.70;99.90;;;;;;5030293;28;19925;-71
2022/07/25 02:21:46;;;;;;;;;;;20.80;99.90;;;;;;5014811;28;19949;-71
2022/07/25 02:24:12;;;;;;;;;;;20.70;99.90;;;;;;5030747;28;19929;-71
2022/07/25 02:26:39;;;;;;;;;;;20.70;99.90;;;;;;5029238;28;19933;-71
2022/07/25 02:29:07;;;;;;;;;;;20.70;99.90;;;;;;5030108;28;19925;-71
2022/07/25 02:31:34;;;;;;;;;;;20.70;99.90;;;;;;5030728;28;19925;-71
2022/07/25 02:34:01;;;;;;;;;;;20.60;99.90;;;;;;5030712;28;19934;-71
2022/07/25 02:36:28;;;;;;;;;;;20.60;99.90;;;;;;5047224;28;19929;-71
2022/07/25 02:38:55;;;;;;;;;;;20.60;99.90;;;;;;5029997;28;19925;-71
2022/07/25 02:41:21;;;;;;;;;;;20.50;99.90;;;;;;5013886;28;19929;-71
2022/07/25 02:43:48;;;;;;;;;;;20.50;99.90;;;;;;5030488;28;19979;-71
2022/07/25 02:46:16;;;;;;;;;;;20.40;99.90;;;;;;5030109;28;19925;-71
2022/07/25 02:48:43;;;;;;;;;;;20.40;99.90;;;;;;5030312;28;19930;-71
2022/07/25 02:51:10;;;;;;;;;;;20.30;99.90;;;;;;5008262;28;20392;-71
2022/07/25 02:53:37;;;;;;;;;;;20.30;99.90;;;;;;5030384;28;19926;-71
2022/07/25 02:56:04;;;;;;;;;;;20.30;99.90;;;;;;5030116;28;19926;-71
2022/07/25 02:58:30;;;;;;;;;;;20.30;99.90;;;;;;5046493;28;19925;-71
2022/07/25 03:00:57;;;;;;;;;;;20.30;99.90;;;;;;5030043;28;19929;-71
2022/07/25 03:03:25;;;;;;;;;;;20.30;99.90;;;;;;5030249;28;19925;-71
2022/07/25 03:05:52;;;;;;;;;;;20.30;99.90;;;;;;5024952;28;20463;-71
2022/07/25 03:08:19;;;;;;;;;;;20.20;99.90;;;;;;5012622;28;20360;-71
2022/07/25 03:10:46;;;;;;;;;;;20.20;99.90;;;;;;5029326;28;19942;-71
2022/07/25 03:13:12;;;;;;;;;;;20.20;99.90;;;;;;5026613;28;19926;-71
2022/07/25 03:15:39;;;;;;;;;;;20.20;99.90;;;;;;5029054;28;19944;-71
2022/07/25 03:18:06;;;;;;;;;;;20.20;99.90;;;;;;5026005;28;20356;-71
2022/07/25 03:20:34;;;;;;;;;;;20.20;99.90;;;;;;5029688;28;20012;-71
2022/07/25 03:23:01;;;;;;;;;;;20.30;99.90;;;;;;5027299;28;20298;-71
2022/07/25 03:25:28;;;;;;;;;;;20.20;99.90;;;;;;5029245;28;19925;-71
2022/07/25 03:27:55;;;;;;;;;;;20.20;99.90;;;;;;5029044;28;19929;-71
2022/07/25 03:30:21;;;;;;;;;;;20.20;99.90;;;;;;5029234;28;20400;-71
2022/07/25 03:32:48;;;;;;;;;;;20.20;99.90;;;;;;5029289;28;19976;-71
2022/07/25 03:35:15;;;;;;;;;;;20.10;99.90;;;;;;5046133;28;19933;-71
2022/07/25 03:37:44;;;;;;;;;;;20.10;99.90;;;;;;5040245;28;20016;-71
2022/07/25 03:40:11;;;;;;;;;;;20.10;99.90;;;;;;5025356;28;19935;-71
2022/07/25 03:42:38;;;;;;;;;;;20.00;99.90;;;;;;5029125;28;20356;-71
2022/07/25 03:45:05;;;;;;;;;;;20.00;99.90;;;;;;5029052;28;19930;-71
2022/07/25 03:47:32;;;;;;;;;;;20.00;99.90;;;;;;5045639;28;19925;-71
2022/07/25 03:49:59;;;;;;;;;;;20.10;99.90;;;;;;5029236;28;19930;-71
2022/07/25 03:52:25;;;;;;;;;;;20.10;99.90;;;;;;5045692;28;19929;-71
2022/07/25 03:54:54;;;;;;;;;;;20.10;99.90;;;;;;5029006;28;19934;-71
2022/07/25 03:57:20;;;;;;;;;;;20.20;99.90;;;;;;5012690;28;19984;-71
2022/07/25 03:59:47;;;;;;;;;;;20.10;99.90;;;;;;5028926;28;20389;-71
2022/07/25 04:02:14;;;;;;;;;;;20.20;99.90;;;;;;5025281;28;19930;-71
2022/07/25 04:04:41;;;;;;;;;;;20.20;99.90;;;;;;5028744;28;19975;-71
2022/07/25 04:07:07;;;;;;;;;;;20.20;99.90;;;;;;5028933;28;20336;-71
2022/07/25 04:09:34;;;;;;;;;;;20.20;99.90;;;;;;5045014;28;19929;-71
2022/07/25 04:12:02;;;;;;;;;;;20.30;99.90;;;;;;5028878;28;20296;-71
2022/07/25 04:14:29;;;;;;;;;;;20.30;99.90;;;;;;5012169;28;19983;-71
2022/07/25 04:16:56;;;;;;;;;;;20.30;99.90;;;;;;5028842;28;19942;-71
2022/07/25 04:19:23;;;;;;;;;;;20.40;99.90;;;;;;5028324;28;19925;-70
2022/07/25 04:21:49;;;;;;;;;;;20.40;99.90;;;;;;5028301;28;19929;-71
2022/07/25 04:24:16;;;;;;;;;;;20.50;99.90;;;;;;5024945;28;19926;-71
2022/07/25 04:26:43;;;;;;;;;;;20.50;99.90;;;;;;5027605;28;19973;-71
2022/07/25 04:29:11;;;;;;;;;;;20.60;99.90;;;;;;5028007;28;19929;-71
2022/07/25 04:31:38;;;;;;;;;;;20.70;99.90;;;;;;5028575;28;20360;-71
2022/07/25 04:34:05;;;;;;;;;;;20.80;99.90;;;;;;5028245;28;20302;-71
2022/07/25 04:36:32;;;;;;;;;;;20.90;99.90;;;;;;5023210;28;19926;-71
2022/07/25 04:38:58;;;;;;;;;;;21.00;99.90;;;;;;5027733;28;19930;-71
2022/07/25 04:41:25;;;;;;;;;;;21.10;99.90;;;;;;5028078;28;19925;-71
2022/07/25 04:43:52;;;;;;;;;;;21.20;99.90;;;;;;5044893;28;19929;-71
2022/07/25 04:46:20;;;;;;;;;;;21.20;99.90;;;;;;5027984;28;19926;-71
2022/07/25 04:48:47;;;;;;;;;;;21.20;99.90;;;;;;5027567;28;19930;-71
2022/07/25 04:51:14;;;;;;;;;;;21.20;99.90;;;;;;5028013;28;19926;-71
2022/07/25 04:53:41;;;;;;;;;;;21.30;99.90;;;;;;5026844;28;19937;-71
2022/07/25 04:56:08;;;;;;;;;;;21.30;99.90;;;;;;5027788;28;19972;-72
2022/07/25 04:58:35;;;;;;;;;;;21.40;99.90;;;;;;5009739;28;19971;-72
2022/07/25 05:01:01;;;;;;;;;;;21.50;99.90;;;;;;5027348;28;19925;-72
2022/07/25 05:03:30;;;;;;;;;;;21.60;99.90;;;;;;5024909;28;19925;-71
2022/07/25 05:05:56;;;;;;;;;;;21.70;99.90;;;;;;5027735;28;20455;-72
2022/07/25 05:08:23;;;;;;;;;;;21.80;99.90;;;;;;5027410;28;20340;-70
2022/07/25 05:10:50;;;;;;;;;;;21.90;99.90;;;;;;5043939;28;19979;-74
2022/07/25 05:13:17;;;;;;;;;;;22.00;99.90;;;;;;5027839;28;19926;-73
2022/07/25 05:15:43;;;;;;;;;;;22.20;99.90;;;;;;5027443;28;19926;-71
2022/07/25 05:18:10;;;;;;;;;;;22.20;99.90;;;;;;5027310;28;19933;-71
2022/07/25 05:20:39;;;;;;;;;;;22.30;99.90;;;;;;5026967;28;19980;-71
2022/07/25 05:23:05;;;;;;;;;;;22.30;99.90;;;;;;5027609;28;19932;-69
2022/07/25 05:25:33;;;;;;;;;;;22.50;99.90;;;;;;5027500;28;19925;-71
2022/07/25 05:28:00;;;;;;;;;;;22.60;99.90;;;;;;5027067;28;20389;-71
2022/07/25 05:30:27;;;;;;;;;;;22.70;99.90;;;;;;5027141;28;19926;-72
2022/07/25 05:32:54;;;;;;;;;;;22.70;99.90;;;;;;5023463;28;20380;-71
2022/07/25 05:35:21;;;;;;;;;;;22.90;99.90;;;;;;5023055;28;20305;-71
2022/07/25 05:37:49;;;;;;;;;;;23.00;99.90;;;;;;5026887;28;20528;-71
2022/07/25 05:40:17;;;;;;;;;;;23.10;99.90;;;;;;5011989;28;20504;-71
2022/07/25 05:42:44;;;;;;;;;;;23.20;99.90;;;;;;5011753;28;20000;-71
2022/07/25 05:45:11;;;;;;;;;;;23.30;99.90;;;;;;5011641;28;19964;-68
2022/07/25 05:47:37;;;;;;;;;;;23.50;99.90;;;;;;5027523;28;19925;-70
2022/07/25 05:50:04;;;;;;;;;;;23.70;99.90;;;;;;5027114;28;20397;-70
2022/07/25 05:52:31;;;;;;;;;;;23.80;99.90;;;;;;5041195;28;19985;-76
2022/07/25 05:54:59;;;;;;;;;;;23.90;99.90;;;;;;5043969;28;19960;-72
2022/07/25 05:57:26;;;;;;;;;;;24.00;99.90;;;;;;5027410;28;19933;-73
2022/07/25 05:59:53;;;;;;;;;;;24.10;99.90;;;;;;5026903;28;19973;-69
2022/07/25 06:02:19;;;;;;;;;;;24.30;99.90;;;;;;5023950;28;19926;-70
2022/07/25 06:04:46;;;;;;;;;;;24.40;99.90;;;;;;5043046;28;19937;-70
2022/07/25 06:07:13;;;;;;;;;;;24.50;99.90;;;;;;5042795;28;20363;-70
2022/07/25 06:09:39;;;;;;;;;;;24.60;99.90;;;;;;5025431;28;19964;-70
2022/07/25 06:12:08;;;;;;;;;;;24.80;99.90;;;;;;5022977;28;19926;-70
2022/07/25 06:14:35;;;;;;;;;;;24.90;99.90;;;;;;5026386;28;19976;-71
2022/07/25 06:17:01;;;;;;;;;;;24.90;99.90;;;;;;5025653;28;20467;-70
2022/07/25 06:19:29;;;;;;;;;;;25.00;99.90;;;;;;5041838;28;19925;-70
2022/07/25 06:21:55;;;;;;;;;;;25.00;99.90;;;;;;5021414;28;19925;-71
2022/07/25 06:24:22;;;;;;;;;;;25.00;99.90;;;;;;5022925;28;19926;-71
2022/07/25 06:26:49;;;;;;;;;;;25.00;99.90;;;;;;5003659;28;20389;-71
2022/07/25 06:29:17;;;;;;;;;;;25.10;99.90;;;;;;5021891;28;19972;-70
2022/07/25 06:31:44;;;;;;;;;;;25.20;99.90;;;;;;5022665;28;19925;-69
2022/07/25 06:34:11;;;;;;;;;;;25.30;99.90;;;;;;5022782;28;19932;-69
2022/07/25 06:36:37;;;;;;;;;;;25.40;99.90;;;;;;5007434;28;20351;-69
2022/07/25 06:39:04;;;;;;;;;;;25.40;99.90;;;;;;5024316;28;19925;-69
2022/07/25 06:41:31;;;;;;;;;;;25.40;99.90;;;;;;5041102;28;19925;-69
2022/07/25 06:43:58;;;;;;;;;;;25.40;99.90;;;;;;5023758;28;19926;-69
2022/07/25 06:46:29;;;;;;;;;;;25.50;99.90;;;;;;5030048;28;20023;-69
2022/07/25 06:48:56;;;;;;;;;;;25.60;99.90;;;;;;5009318;28;20297;-69
2022/07/25 06:51:24;;;;;;;;;;;25.60;99.90;;;;;;5045781;28;20293;-69
2022/07/25 06:53:51;;;;;;;;;;;25.70;99.90;;;;;;5046082;28;20012;-69
2022/07/25 06:56:18;;;;;;;;;;;25.80;99.90;;;;;;5045529;28;19929;-69
2022/07/25 06:58:44;;;;;;;;;;;26.00;99.90;;;;;;5045514;28;20028;-69
2022/07/25 07:01:11;;;;;;;;;;;26.20;99.90;;;;;;5025578;28;19925;-70
2022/07/25 07:03:39;;;;;;;;;;;26.40;99.90;;;;;;5044551;28;19925;-69
2022/07/25 07:06:06;;;;;;;;;;;26.50;99.90;;;;;;5028871;28;19929;-71
2022/07/25 07:08:33;;;;;;;;;;;26.70;99.90;;;;;;5028426;28;19984;-71
2022/07/25 07:11:00;;;;;;;;;;;26.80;99.90;;;;;;5028792;28;20409;-73
2022/07/25 07:13:27;;;;;;;;;;;26.90;99.90;;;;;;5028834;28;19972;-72
2022/07/25 07:15:54;;;;;;;;;;;27.10;99.90;;;;;;5028297;28;19925;-72
2022/07/25 07:18:21;;;;;;;;;;;27.20;99.90;;;;;;5045261;28;20052;-69
2022/07/25 07:20:50;;;;;;;;;;;27.40;99.90;;;;;;5046176;28;19933;-71
2022/07/25 07:23:17;;;;;;;;;;;27.40;99.90;;;;;;5028444;28;19925;-70
2022/07/25 07:25:44;;;;;;;;;;;27.30;99.90;;;;;;5028620;28;20397;-70
2022/07/25 07:28:11;;;;;;;;;;;27.20;99.90;;;;;;5028148;28;20013;-70
2022/07/25 07:30:38;;;;;;;;;;;27.10;99.90;;;;;;5028403;28;19991;-70
2022/07/25 07:33:05;;;;;;;;;;;27.10;99.90;;;;;;5025786;28;19948;-70
2022/07/25 07:35:31;;;;;;;;;;;27.10;99.90;;;;;;5028374;28;19972;-70
2022/07/25 07:38:00;;;;;;;;;;;27.20;99.90;;;;;;5025041;28;19941;-70
2022/07/25 07:40:27;;;;;;;;;;;27.20;99.90;;;;;;5028100;28;19929;-70
2022/07/25 07:42:55;;;;;;;;;;;27.30;99.90;;;;;;5028314;28;19925;-71
2022/07/25 07:45:23;;;;;;;;;;;27.20;99.90;;;;;;5042595;22;19923;-72
2022/07/25 07:47:50;;;;;;;;;;;27.20;99.90;;;;;;5044627;28;19979;-72
2022/07/25 07:50:17;;;;;;;;;;;27.20;99.90;;;;;;5039528;28;20036;-72
2022/07/25 07:52:44;;;;;;;;;;;27.00;99.90;;;;;;5052664;28;19960;-72
2022/07/25 07:57:58;;;;;;;;;;;26.90;99.90;;;;;;5044888;28;19925;-72
2022/07/25 08:00:26;;;;;;;;;;;26.80;99.90;;;;;;5039813;28;19928;-72
2022/07/25 08:02:54;;;;;;;;;;;26.70;99.90;;;;;;5045542;28;19971;-72
2022/07/25 08:05:22;;;;;;;;;;;26.60;99.90;;;;;;5043076;28;20350;-72
2022/07/25 08:07:50;;;;;;;;;;;26.50;99.90;;;;;;5042111;28;19971;-72
2022/07/25 08:10:20;;;;;;;;;;;26.20;99.90;;;;;;5036932;28;20023;-72
2022/07/25 08:12:47;;;;;;;;;;;26.20;99.90;;;;;;5040964;28;19925;-72
2022/07/25 08:15:13;;;;;;;;;;;26.10;99.90;;;;;;5045140;28;19933;-72
2022/07/25 08:17:40;;;;;;;;;;;26.10;99.90;;;;;;5039559;28;20404;-72
2022/07/25 08:20:07;;;;;;;;;;;26.00;99.90;;;;;;5039128;28;19925;-72
2022/07/25 08:22:38;;;;;;;;;;;26.00;99.90;;;;;;5042008;28;19978;-72
2022/07/25 08:25:06;;;;;;;;;;;26.00;99.90;;;;;;5039489;28;19925;-72
2022/07/25 08:27:35;;;;;;;;;;;26.00;99.90;;;;;;5042377;28;19933;-72
2022/07/25 08:30:01;;;;;;;;;;;25.90;99.90;;;;;;5040572;28;19932;-72
2022/07/25 08:32:28;;;;;;;;;;;25.80;99.90;;;;;;5040035;28;20068;-72
2022/07/25 08:34:55;;;;;;;;;;;25.60;99.90;;;;;;5036983;28;19982;-72
2022/07/25 08:37:22;;;;;;;;;;;25.60;99.90;;;;;;5038731;28;20367;-71
2022/07/25 08:39:49;;;;;;;;;;;25.50;99.90;;;;;;5037421;28;19986;-72
2022/07/25 08:42:17;;;;;;;;;;;25.50;99.90;;;;;;5043520;28;19925;-72
2022/07/25 08:44:49;;;;;;;;;;;25.60;99.90;;;;;;5051339;28;19936;-72
2022/07/25 08:47:16;;;;;;;;;;;25.90;99.90;;;;;;5043139;28;19932;-72
2022/07/25 08:49:43;;;;;;;;;;;26.10;99.90;;;;;;5038483;28;20339;-72
2022/07/25 08:52:10;;;;;;;;;;;26.30;99.90;;;;;;5039225;28;19929;-72
2022/07/25 08:54:37;;;;;;;;;;;26.50;99.90;;;;;;5042224;28;19925;-72
2022/07/25 08:57:04;;;;;;;;;;;26.40;99.90;;;;;;5040788;28;20389;-72
2022/07/25 08:59:31;;;;;;;;;;;26.40;99.90;;;;;;5040036;28;19929;-72
2022/07/25 09:02:02;;;;;;;;;;;26.30;99.90;;;;;;5036951;28;19924;-72
2022/07/25 09:04:29;;;;;;;;;;;26.40;99.90;;;;;;5041088;28;19925;-72
2022/07/25 09:06:56;;;;;;;;;;;26.60;99.90;;;;;;5034062;28;20458;-71
2022/07/25 09:09:29;;;;;;;;;;;26.70;99.90;;;;;;5039465;28;19924;-72
2022/07/25 09:11:56;;;;;;;;;;;26.50;99.90;;;;;;5039385;28;19925;-72
2022/07/25 09:14:23;;;;;;;;;;;26.40;99.90;;;;;;5037306;28;19929;-72
2022/07/25 09:16:49;;;;;;;;;;;26.20;99.90;;;;;;5042682;28;20470;-72
2022/07/25 09:19:19;;;;;;;;;;;26.10;99.90;;;;;;5040675;28;20351;-72
2022/07/25 09:21:57;;;;;;;;;;;26.10;99.90;;;;;;5042903;28;19946;-72
2022/07/25 09:24:24;;;;;;;;;;;26.10;99.90;;;;;;5038073;28;19994;-73
2022/07/25 09:26:51;;;;;;;;;;;25.90;99.90;;;;;;5038781;28;19975;-73
2022/07/25 09:29:21;;;;;;;;;;;25.70;99.90;;;;;;5042523;28;20194;-73
2022/07/25 09:31:48;;;;;;;;;;;25.60;99.90;;;;;;5035809;28;20361;-73
2022/07/25 09:34:32;;;;;;;;;;;25.60;99.90;;;;;;5039463;28;20016;-73
2022/07/25 09:36:59;;;;;;;;;;;25.60;99.90;;;;;;5035556;28;19978;-73
2022/07/25 09:39:33;;;;;;;;;;;25.40;99.90;;;;;;5039362;28;20384;-73
2022/07/25 09:42:00;;;;;;;;;;;25.30;99.90;;;;;;5040652;28;19925;-73
2022/07/25 09:44:29;;;;;;;;;;;25.10;99.90;;;;;;5039346;28;20028;-73
2022/07/25 09:46:56;;;;;;;;;;;25.20;99.90;;;;;;5038430;28;19936;-73
2022/07/25 09:49:22;;;;;;;;;;;25.20;99.90;;;;;;5036168;28;19999;-72
2022/07/25 09:51:51;;;;;;;;;;;25.20;99.90;;;;;;5036139;28;19929;-73
2022/07/25 09:54:18;;;;;;;;;;;25.20;99.90;;;;;;5034147;28;19925;-72
2022/07/25 09:56:45;;;;;;;;;;;25.10;99.90;;;;;;5036657;28;19933;-73
2022/07/25 09:59:12;;;;;;;;;;;25.10;99.90;;;;;;5037450;28;19933;-73
2022/07/25 10:01:43;;;;;;;;;;;25.10;99.90;;;;;;5036393;28;19986;-73
2022/07/25 10:04:14;;;;;;;;;;;25.10;99.90;;;;;;5040141;28;19930;-73
2022/07/25 10:06:48;;;;;;;;;;;25.10;99.90;;;;;;5032591;28;19940;-73
2022/07/25 10:09:16;;;;;;;;;;;25.10;99.90;;;;;;5039370;28;20023;-73
2022/07/25 10:11:58;;;;;;;;;;;25.30;99.90;;;;;;5031367;28;19930;-72
2022/07/25 10:14:25;;;;;;;;;;;25.50;99.90;;;;;;5028196;28;20412;-72
2022/07/25 10:16:52;;;;;;;;;;;25.60;99.90;;;;;;5031098;28;19925;-72
2022/07/25 10:19:35;;;;;;;;;;;25.80;99.90;;;;;;5031608;28;20399;-72
2022/07/25 10:22:02;;;;;;;;;;;25.90;99.90;;;;;;5030015;28;19925;-72
2022/07/25 10:24:34;;;;;;;;;;;26.00;99.90;;;;;;5029707;28;19925;-73
2022/07/25 10:27:07;;;;;;;;;;;26.30;99.90;;;;;;5034162;28;19948;-72
2022/07/25 10:29:34;;;;;;;;;;;26.40;99.90;;;;;;5030488;28;19970;-72
2022/07/25 10:32:05;;;;;;;;;;;26.50;99.90;;;;;;5034380;28;19929;-73
2022/07/25 10:34:32;;;;;;;;;;;26.90;99.90;;;;;;5059583;28;19932;-72
2022/07/25 10:37:09;;;;;;;;;;;27.10;99.90;;;;;;5042502;28;19924;-72
2022/07/25 10:39:39;;;;;;;;;;;26.80;99.90;;;;;;5040618;28;20307;-72
2022/07/25 10:42:06;;;;;;;;;;;26.80;99.90;;;;;;5044683;28;19948;-72
2022/07/25 10:44:41;;;;;;;;;;;26.60;99.90;;;;;;5040986;28;19925;-73
2022/07/25 10:47:09;;;;;;;;;;;26.50;99.90;;;;;;5046505;28;20023;-73
2022/07/25 10:49:37;;;;;;;;;;;26.80;99.90;;;;;;5040069;28;19924;-72
2022/07/25 10:52:04;;;;;;;;;;;26.90;99.90;;;;;;5042314;28;19970;-72
2022/07/25 10:54:34;;;;;;;;;;;26.90;99.90;;;;;;5042142;28;20381;-73
2022/07/25 10:57:03;;;;;;;;;;;27.00;99.90;;;;;;5053310;28;19967;-73
2022/07/25 10:59:33;;;;;;;;;;;26.90;99.90;;;;;;5042301;28;19924;-73
2022/07/25 11:02:00;;;;;;;;;;;26.90;99.90;;;;;;5036928;28;19925;-73
2022/07/25 11:04:28;;;;;;;;;;;26.90;99.90;;;;;;5033062;28;19937;-73
2022/07/25 11:06:54;;;;;;;;;;;26.90;99.90;;;;;;5034093;28;19925;-72
2022/07/25 11:09:23;;;;;;;;;;;26.70;99.90;;;;;;5058481;28;19928;-73
2022/07/25 11:11:51;;;;;;;;;;;26.90;99.90;;;;;;5038452;28;19974;-72
2022/07/25 11:14:20;;;;;;;;;;;27.10;99.90;;;;;;5039191;28;20293;-73
2022/07/25 11:16:48;;;;;;;;;;;27.30;99.90;;;;;;5039831;28;19929;-73
2022/07/25 11:19:18;;;;;;;;;;;27.10;99.90;;;;;;5037514;28;19925;-73
2022/07/25 11:21:46;;;;;;;;;;;27.10;99.90;;;;;;5036129;28;20016;-73
2022/07/25 11:24:13;;;;;;;;;;;27.20;99.90;;;;;;5040752;28;19925;-73
2022/07/25 11:26:48;;;;;;;;;;;27.50;99.90;;;;;;5034555;28;19924;-73
2022/07/25 11:29:20;;;;;;;;;;;27.70;99.90;;;;;;5040117;28;19928;-73
2022/07/25 11:31:57;;;;;;;;;;;27.70;99.90;;;;;;5042096;28;19935;-73
2022/07/25 11:34:25;;;;;;;;;;;28.00;99.90;;;;;;5040835;28;19932;-73
2022/07/25 11:36:55;;;;;;;;;;;28.00;99.90;;;;;;5036078;28;19924;-73
2022/07/25 11:39:23;;;;;;;;;;;28.20;99.90;;;;;;5040638;28;19948;-72
2022/07/25 11:41:58;;;;;;;;;;;27.90;99.90;;;;;;5046396;28;19925;-73
2022/07/25 11:44:31;;;;;;;;;;;28.60;99.90;;;;;;5041104;28;19931;-73
2022/07/25 11:46:58;;;;;;;;;;;28.60;99.90;;;;;;5037239;28;19925;-73
2022/07/25 11:49:25;;;;;;;;;;;28.80;99.90;;;;;;5042852;28;19924;-72
2022/07/25 11:51:52;;;;;;;;;;;28.50;99.90;;;;;;5033055;28;19977;-73
2022/07/25 11:54:19;;;;;;;;;;;28.10;99.90;;;;;;5042640;28;19925;-72
2022/07/25 11:56:46;;;;;;;;;;;28.50;99.90;;;;;;5036523;28;19933;-70
2022/07/25 11:59:13;;;;;;;;;;;28.70;99.90;;;;;;5032762;28;19968;-73
2022/07/25 12:01:43;;;;;;;;;;;28.60;99.90;;;;;;5035202;28;19931;-70
2022/07/25 12:04:11;;;;;;;;;;;28.40;99.90;;;;;;5033661;28;19925;-71
2022/07/25 12:06:38;;;;;;;;;;;28.50;99.90;;;;;;5042183;28;19929;-71
2022/07/25 12:09:12;;;;;;;;;;;28.60;99.90;;;;;;5039584;28;19972;-72
2022/07/25 12:11:39;;;;;;;;;;;28.50;99.90;;;;;;5027122;28;19986;-72
2022/07/25 12:14:06;;;;;;;;;;;28.20;99.90;;;;;;5035777;28;19925;-72
2022/07/25 12:16:33;;;;;;;;;;;28.70;99.90;;;;;;5043372;28;19925;-72
2022/07/25 12:19:01;;;;;;;;;;;30.10;99.90;;;;;;5039841;28;20000;-73
2022/07/25 12:21:28;;;;;;;;;;;31.10;99.90;;;;;;5047851;28;20355;-72
2022/07/25 12:23:55;;;;;;;;;;;32.10;99.90;;;;;;5035441;28;19929;-73
2022/07/25 12:26:22;;;;;;;;;;;32.00;99.90;;;;;;5030699;28;19925;-73
2022/07/25 12:28:48;;;;;;;;;;;31.50;99.90;;;;;;5033025;28;19928;-73
2022/07/25 12:31:15;;;;;;;;;;;32.40;99.90;;;;;;5033734;28;19924;-73
2022/07/25 12:33:42;;;;;;;;;;;32.20;99.90;;;;;;5038290;28;19928;-73
2022/07/25 12:36:13;;;;;;;;;;;32.60;99.90;;;;;;5039266;28;19925;-73
2022/07/25 12:38:40;;;;;;;;;;;32.40;99.90;;;;;;5038273;28;19925;-74
2022/07/25 12:41:07;;;;;;;;;;;31.90;99.90;;;;;;5031522;28;19925;-74
2022/07/25 12:43:34;;;;;;;;;;;32.70;99.90;;;;;;5040899;28;19929;-74
2022/07/25 12:46:00;;;;;;;;;;;32.60;99.90;;;;;;5036425;28;20404;-74
2022/07/25 12:48:27;;;;;;;;;;;32.30;99.90;;;;;;5041580;28;19925;-74
2022/07/25 12:50:54;;;;;;;;;;;32.10;99.90;;;;;;5039310;28;19929;-73
2022/07/25 12:53:22;;;;;;;;;;;32.30;99.90;;;;;;5040349;28;20343;-73
2022/07/25 12:55:50;;;;;;;;;;;32.80;99.90;;;;;;5042102;28;19932;-74
2022/07/25 12:58:16;;;;;;;;;;;33.00;99.90;;;;;;5042114;28;19925;-74
2022/07/25 13:00:43;;;;;;;;;;;32.00;99.90;;;;;;5041256;28;19979;-73
2022/07/25 13:03:10;;;;;;;;;;;31.40;99.90;;;;;;5052775;28;19971;-73
2022/07/25 13:05:37;;;;;;;;;;;30.70;99.90;;;;;;5040983;28;19978;-73
2022/07/25 13:08:04;;;;;;;;;;;31.30;99.90;;;;;;5042245;28;19925;-73
2022/07/25 13:10:33;;;;;;;;;;;31.00;99.90;;;;;;5052364;28;20316;-74
2022/07/25 13:12:59;;;;;;;;;;;30.60;99.90;;;;;;5038329;28;19929;-73
2022/07/25 13:15:27;;;;;;;;;;;30.10;99.90;;;;;;5042226;28;19978;-73
2022/07/25 13:17:53;;;;;;;;;;;29.40;99.90;;;;;;5042491;28;19932;-73
2022/07/25 13:20:20;;;;;;;;;;;29.50;99.90;;;;;;5037944;28;19929;-73
2022/07/25 13:22:47;;;;;;;;;;;29.70;99.90;;;;;;5037876;28;19925;-73
2022/07/25 13:25:14;;;;;;;;;;;29.50;99.90;;;;;;5038487;28;20392;-73
2022/07/25 13:27:42;;;;;;;;;;;29.20;99.90;;;;;;5045176;28;19925;-72
2022/07/25 13:30:10;;;;;;;;;;;28.70;99.90;;;;;;5038339;28;19928;-70
2022/07/25 13:32:37;;;;;;;;;;;28.10;99.90;;;;;;5036944;28;19925;-72
2022/07/25 13:35:04;;;;;;;;;;;28.20;99.90;;;;;;5038654;28;19928;-70
2022/07/25 13:37:32;;;;;;;;;;;28.30;99.90;;;;;;5040766;28;20419;-71
2022/07/25 13:39:59;;;;;;;;;;;28.60;99.90;;;;;;5034595;28;19925;-75
2022/07/25 13:42:25;;;;;;;;;;;28.50;99.90;;;;;;5034605;28;19987;-70
2022/07/25 13:44:54;;;;;;;;;;;29.10;99.90;;;;;;5038408;28;19925;-70
2022/07/25 13:47:21;;;;;;;;;;;29.80;99.90;;;;;;5037851;28;20335;-71
2022/07/25 13:49:48;;;;;;;;;;;29.70;99.90;;;;;;5037416;28;19925;-71
2022/07/25 13:52:15;;;;;;;;;;;29.30;99.90;;;;;;5038922;28;19970;-70
2022/07/25 13:54:42;;;;;;;;;;;28.60;99.90;;;;;;5044943;28;19929;-71
2022/07/25 13:57:09;;;;;;;;;;;28.30;99.90;;;;;;5042902;28;20469;-70
2022/07/25 13:59:36;;;;;;;;;;;28.50;99.90;;;;;;5039070;28;19925;-70
2022/07/25 14:02:04;;;;;;;;;;;29.30;99.90;;;;;;5041141;28;19929;-71
2022/07/25 14:04:30;;;;;;;;;;;29.10;99.90;;;;;;5041713;28;19932;-71
2022/07/25 14:06:59;;;;;;;;;;;29.10;99.90;;;;;;5040694;28;19925;-71
2022/07/25 14:09:26;;;;;;;;;;;28.60;99.90;;;;;;5043795;28;19937;-71
2022/07/25 14:11:53;;;;;;;;;;;28.30;99.90;;;;;;5036995;28;19979;-70
2022/07/25 14:14:19;;;;;;;;;;;28.20;99.90;;;;;;5043379;28;19982;-70
2022/07/25 14:16:47;;;;;;;;;;;27.90;99.90;;;;;;5044260;28;19937;-71
2022/07/25 14:19:16;;;;;;;;;;;27.80;99.90;;;;;;5029886;28;19933;-77
2022/07/25 14:21:43;;;;;;;;;;;27.80;99.90;;;;;;5026442;28;20028;-70